This is the latest recevied weather packets stored in our database for station/object N5ATR. If no packets are shown the sender has not sent any weather packets the latest 10 day(s).
| Time | Temp. | Humidity | Pressure | Rain* | Wind** | Luminosity | Snow |
|---|---|---|---|---|---|---|---|
| 1777481844 | 15.56° C | 16% | 1018 hPa | 0 mm | - | 689 W/m² | - |
| 1777481541 | 16.11° C | 15% | 1018 hPa | 0 mm | - | 680 W/m² | - |
| 1777481237 | 16.11° C | 16% | 1017.8 hPa | 0 mm | - | 673 W/m² | - |
| 1777480935 | 15.56° C | 16% | 1018.1 hPa | 0 mm | - | 645 W/m² | - |
| 1777480630 | 14.44° C | 31% | 1018.3 hPa | 0 mm | - | 633 W/m² | - |
| 1777480328 | 13.89° C | 33% | 1018.2 hPa | 0 mm | - | 623 W/m² | - |
| 1777480023 | 13.33° C | 37% | 1018.6 hPa | 0 mm | - | 579 W/m² | - |
| 1777479720 | 13.33° C | 37% | 1018.6 hPa | 0 mm | - | 529 W/m² | - |
| 1777479418 | 12.78° C | 37% | 1018.7 hPa | 0 mm | - | 628 W/m² | - |
| 1777479114 | 12.78° C | 38% | 1018.5 hPa | 0 mm | - | 543 W/m² | - |
| 1777478811 | 12.22° C | 37% | 1018.7 hPa | 0 mm | - | 592 W/m² | - |
| 1777478507 | 12.22° C | 38% | 1018.7 hPa | 0 mm | - | 534 W/m² | - |
| 1777478204 | 12.22° C | 38% | 1019 hPa | 0 mm | - | 464 W/m² | - |
| 1777477901 | 12.22° C | 37% | 1018.6 hPa | 0 mm | - | 463 W/m² | - |
| 1777477596 | 11.67° C | 38% | 1018.6 hPa | 0 mm | - | 459 W/m² | - |
| 1777477293 | 11.67° C | 38% | 1019 hPa | 0 mm | - | 483 W/m² | - |
| 1777476989 | 11.11° C | 37% | 1019.2 hPa | 0 mm | - | 479 W/m² | - |
| 1777476688 | 10.56° C | 38% | 1019.2 hPa | 0 mm | - | 447 W/m² | - |
| 1777476383 | 10° C | 40% | 1019 hPa | 0 mm | - | 381 W/m² | - |
| 1777476081 | 9.44° C | 42% | 1019.1 hPa | 0 mm | - | 318 W/m² | - |
| 1777475781 | 8.89° C | 43% | 1019.1 hPa | 0 mm | - | 353 W/m² | - |
| 1777475478 | 8.89° C | 44% | 1019.1 hPa | 0 mm | - | 301 W/m² | - |
| 1777475174 | 8.33° C | 45% | 1019 hPa | 0 mm | - | 356 W/m² | - |
| 1777474870 | 7.78° C | 46% | 1019.1 hPa | 0 mm | - | 266 W/m² | - |
| 1777474565 | 8.33° C | 45% | 1018.8 hPa | 0 mm | - | 276 W/m² | - |
* Rain latest hour (hover to see other rain measurements)
** Current wind speed in m/s (hover to see current wind gust speed)